全部
Wilcannia Airport (Wilcannia, New South Wales) WIO 天气
|
Wilcannia, New South Wales (WIO / YWCA)
晴天
微风 |
|
8 °C |
There is no TAF data available at WIO or any nearby airports.
WIO近期METAR历史数据
| Date | Time (AEST) | Flight Rules | Wind Dir. | Speed | Type | Height AGL (ft) | Visibility | Temp (°C) | Temp (°F) | Dew Point (°C) | Dew Point (°F) | Rel. Humid. | Pressure | Density Altitude | Remarks |
|---|---|---|---|---|---|---|---|---|---|---|---|---|---|---|---|
| 06-五月 | 04:00 | n/a | 190° | 6 kt | Missing | 8° | 46° | 7° | 44° | 93% | 1022 mb | -850 ft | |||
| 06-五月 | 03:00 | n/a | 170° | 6 kt | Missing | 9° | 48° | 7° | 44° | 87% | 1022 mb | -730 ft | |||
| 06-五月 | 02:00 | n/a | 180° | 6 kt | Missing | 10° | 50° | 7° | 44° | 82% | 1022 mb | -610 ft | |||
| 06-五月 | 01:00 | n/a | 180° | 7 kt | Missing | 11° | 51° | 8° | 46° | 82% | 1022 mb | -490 ft | |||
| 06-五月 | 00:00 | n/a | 230° | 6 kt | Missing | 10° | 50° | 7° | 44° | 82% | 1022 mb | -610 ft | |||
| 05-五月 | 23:00 | n/a | 220° | 6 kt | Missing | 11° | 51° | 7° | 44° | 76% | 1022 mb | -490 ft | |||
| 05-五月 | 22:00 | n/a | 220° | 6 kt | Missing | 11° | 51° | 8° | 46° | 82% | 1023 mb | -519 ft | |||
| 05-五月 | 21:00 | n/a | 200° | 5 kt | Missing | 12° | 53° | 8° | 46° | 76% | 1023 mb | -399 ft | |||
| 05-五月 | 20:00 | n/a | 210° | 6 kt | Missing | 13° | 55° | 8° | 46° | 72% | 1023 mb | -279 ft | |||
| 05-五月 | 19:00 | n/a | 190° | 6 kt | Missing | 15° | 59° | 8° | 46° | 63% | 1022 mb | -10 ft | |||
| 05-五月 | 18:00 | n/a | 210° | 6 kt | Missing | 17° | 62° | 8° | 46° | 55% | 1022 mb | 230 ft | |||
| 05-五月 | 17:00 | n/a | 200° | 8 kt | Missing | 20° | 68° | 7° | 44° | 43% | 1021 mb | 620 ft | |||
| 05-五月 | 16:00 | n/a | 190° | 4 kt | Missing | 21° | 69° | 5° | 41° | 35% | 1021 mb | 740 ft | |||
| 05-五月 | 15:00 | n/a | 190° | 3 kt | Missing | 20° | 68° | 7° | 44° | 43% | 1020 mb | 649 ft | |||
| 05-五月 | 14:00 | n/a | 230° | 3 kt | Missing | 21° | 69° | 8° | 46° | 43% | 1021 mb | 740 ft | |||
| 05-五月 | 13:00 | n/a | 150° | 6 kt | Missing | 21° | 69° | 8° | 46° | 43% | 1021 mb | 740 ft | |||
| 05-五月 | 12:00 | n/a | 150° | 7 kt | Missing | 20° | 68° | 10° | 50° | 53% | 1022 mb | 590 ft | |||
| 05-五月 | 11:00 | n/a | 140° | 9 kt | Missing | 19° | 66° | 10° | 50° | 56% | 1023 mb | 441 ft | |||
| 05-五月 | 10:00 | n/a | 150° | 8 kt | Missing | 17° | 62° | 11° | 51° | 68% | 1023 mb | 201 ft | |||
| 05-五月 | 09:00 | n/a | 190° | 5 kt | Missing | 14° | 57° | 11° | 51° | 82% | 1023 mb | -159 ft | |||
| 05-五月 | 08:00 | n/a | 240° | 4 kt | Missing | 10° | 50° | 9° | 48° | 93% | 1022 mb | -610 ft | |||
| 05-五月 | 07:00 | n/a | 250° | 4 kt | Missing | 8° | 46° | 6° | 42° | 87% | 1021 mb | -820 ft | |||
| 05-五月 | 06:00 | n/a | 270° | 4 kt | Missing | 8° | 46° | 6° | 42° | 87% | 1020 mb | -791 ft | |||
| 05-五月 | 05:00 | n/a | 250° | 4 kt | Missing | 8° | 46° | 6° | 42° | 87% | 1019 mb | -761 ft |
登录
| 您的浏览器不支持. 升级您的浏览器 |
